Terminal Aerodrome Forecast
Issued by NWS Mobile, AL

Home | Current Version | Previous Version | Text Only | Print | Product List | Glossary On
Versions: 1 2 3 4 5 6 7 8 9 10 11 12 13 14 15 16 17
000
FTUS44 KMOB 251733
TAFMOB
TAF
KMOB 251733Z 2518/2618 33009KT P6SM FEW030 SCT250
     FM261500 28010KT P6SM VCSH OVC007 PROB30 2615/2618 P6SM -TSRA
      BKN007CB=

USA.gov is the U.S. government's official web portal to all federal, state and local government web resources and services.